Latest Weather Observations for Oakey

IDQ60801

Issued at 3:32 pm EST Friday 20 January 2017 (issued every 30 minutes, with the page automatically refreshed every 10 minutes)

About weather observations | Map of weather stations | Latest weather observations for QLD | Other Formats
Station Details ID: 041359 Name: OAKEY AERO Lat: -27.40 Lon: 151.74 Height: 405.69 m
Data from the previous 72 hours. | See also: Recent months at Oakey
Date/Time
EST
Temp
°C
App
Temp
°C
Dew
Point
°C
Rel
Hum
%
Delta-T
°C
Wind Press
QNH
hPa
Press
MSL
hPa
Rain since
9am
mm
Dir  Spd
km/h
Gust
km/h
Spd
kts
Gust
kts
20/03:30pm 35.8 31.5 17.0 32 12.3 WNW 35 46 19 25 1004.7 1002.4 0.0
20/03:00pm 35.7 31.8 17.9 35 11.8 NW 35 44 19 24 1005.0 1002.7 0.0
20/02:30pm 35.2 31.9 17.9 36 11.4 NW 32 48 17 26 1005.6 1003.2 0.0
20/02:00pm 35.8 32.9 18.8 36 11.4 NW 32 50 17 27 1006.1 1003.7 0.0
20/01:59pm 36.0 33.6 19.9 39 10.9 NW 32 50 17 27 1006.2 1003.8 0.0
20/01:30pm 34.6 32.3 19.4 40 10.2 NW 30 39 16 21 1006.8 1004.4 0.0
20/01:00pm 33.4 31.1 20.2 46 8.9 NNW 32 43 17 23 1007.5 1005.2 0.0
20/12:30pm 31.8 29.3 19.8 49 8.0 NNW 32 43 17 23 1008.2 1005.8 0.0
20/12:00pm 30.9 28.6 19.3 50 7.7 NNW 30 41 16 22 1008.7 1006.3 0.0
20/11:30am 30.8 29.8 20.4 54 7.0 NW 26 39 14 21 1009.1 1006.7 0.0
20/11:00am 30.6 28.4 19.6 51 7.3 NNW 30 41 16 22 1009.5 1007.2 0.0
20/10:30am 30.0 31.1 20.5 56 6.4 NNW 15 30 8 16 1009.8 1007.5 0.0
20/10:00am 28.2 28.2 19.7 60 5.6 NNW 19 30 10 16 1010.5 1008.1 0.0
20/09:30am 27.2 27.7 20.0 64 4.8 N 17 30 9 16 1010.8 1008.4 0.0
20/09:00am 26.9 26.9 19.8 65 4.7 N 19 26 10 14 1011.1 1008.7 1.4
20/08:30am 25.7 25.3 19.3 67 4.2 N 20 28 11 15 1011.3 1008.9 1.4
20/08:11am 25.8 25.6 19.7 69 4.0 NNE 20 26 11 14 1011.3 1008.9 1.4
20/08:00am 25.1 25.1 19.7 72 3.5 NE 19 24 10 13 1011.1 1008.7 1.4
20/07:30am 24.0 23.9 19.5 76 2.9 NNE 19 22 10 12 1011.5 1009.2 1.4
20/07:00am 23.6 23.5 19.5 78 2.7 NE 19 22 10 12 1011.4 1009.1 1.4
20/06:40am 23.2 22.8 19.4 79 2.5 NE 20 26 11 14 1011.3 1008.9 1.4
20/06:30am 23.0 22.5 19.2 79 2.5 NE 20 24 11 13 1011.2 1008.8 1.4
20/06:00am 22.4 22.0 19.4 83 1.9 NE 20 26 11 14 1011.1 1008.7 1.4
20/05:30am 21.9 22.0 19.1 84 1.8 NE 17 20 9 11 1010.8 1008.4 1.4
20/05:00am 22.1 22.1 18.9 82 2.1 ENE 17 22 9 12 1010.8 1008.4 1.4
20/04:33am 21.9 22.5 18.7 82 2.0 ENE 13 17 7 9 1010.5 1008.1 1.4
20/04:30am 21.9 22.5 18.7 82 2.0 ENE 13 17 7 9 1010.5 1008.1 1.4
20/04:00am 22.1 22.0 18.7 81 2.2 NE 17 24 9 13 1010.0 1007.7 1.4
20/03:30am 21.8 21.3 18.6 82 2.0 ENE 19 24 10 13 1009.7 1007.4 1.4
20/03:00am 21.9 20.5 18.7 82 2.0 ENE 24 33 13 18 1009.8 1007.5 1.4
20/02:46am 22.0 20.6 18.8 82 2.1 ENE 24 30 13 16 1009.8 1007.5 1.4
20/02:30am 22.2 21.6 18.8 81 2.2 ENE 20 24 11 13 1010.1 1007.8 1.4
20/02:16am 22.2 21.3 19.0 82 2.1 ENE 22 32 12 17 1010.6 1008.2 1.4
20/02:00am 22.2 21.6 18.8 81 2.2 ENE 20 30 11 16 1010.6 1008.2 1.4
20/01:30am 22.0 21.8 18.6 81 2.2 ENE 17 24 9 13 1010.6 1008.2 1.4
20/01:00am 21.8 21.5 18.2 80 2.3 ENE 17 20 9 11 1010.7 1008.3 1.4
20/12:30am 22.1 21.2 18.1 78 2.5 ENE 20 26 11 14 1010.7 1008.3 1.4
20/12:00am 22.4 21.8 18.8 80 2.3 ENE 20 28 11 15 1010.9 1008.5 1.4
 
Date/Time
EST
Temp
°C
App
Temp
°C
Dew
Point
°C
Rel
Hum
%
Delta-T
°C
Wind Press
QNH
hPa
Press
MSL
hPa
Rain since
9am
mm
Dir  Spd
km/h
Gust
km/h
Spd
kts
Gust
kts
19/11:50pm 22.6 21.3 19.0 80 2.3 ENE 24 32 13 17 1010.9 1008.5 1.4
19/11:30pm 22.9 22.3 19.7 82 2.1 ENE 22 30 12 16 1011.1 1008.7 1.4
19/11:20pm 22.8 22.5 19.6 82 2.1 ENE 20 28 11 15 1011.3 1008.9 1.4
19/11:00pm 22.8 21.7 19.4 81 2.2 ENE 24 28 13 15 1011.4 1009.1 1.4
19/10:30pm 22.9 21.8 19.5 81 2.2 ENE 24 33 13 18 1011.5 1009.2 1.4
19/10:00pm 23.1 22.0 19.5 80 2.3 ENE 24 32 13 17 1011.5 1009.2 1.4
19/09:30pm 23.5 21.8 19.8 80 2.4 ENE 28 39 15 21 1011.6 1009.3 1.4
19/09:00pm 23.6 23.2 20.1 81 2.3 ENE 22 28 12 15 1011.6 1009.3 1.4
19/08:30pm 23.7 24.1 20.6 83 2.1 ENE 19 24 10 13 1011.7 1009.4 1.4
19/08:00pm 23.5 23.2 20.4 83 2.0 ENE 22 28 12 15 1011.7 1009.4 1.4
19/07:30pm 23.5 23.2 20.4 83 2.0 ENE 22 26 12 14 1011.4 1009.1 1.4
19/07:00pm 23.7 23.5 20.6 83 2.1 ENE 22 30 12 16 1010.9 1008.5 1.4
19/06:30pm 24.0 24.8 21.3 85 1.8 N 19 28 10 15 1010.9 1008.5 1.4
19/06:00pm 23.8 23.6 21.3 86 1.7 ENE 24 30 13 16 1010.2 1007.9 1.4
19/05:30pm 23.3 23.3 21.0 87 1.5 NE 22 28 12 15 1009.8 1007.5 0.8
19/05:00pm 22.9 22.6 20.4 86 1.6 NNE 22 28 12 15 1009.3 1007.0 0.4
19/04:30pm 23.4 20.9 20.2 82 2.1 WNW 33 54 18 29 1009.9 1007.6 0.0
19/04:22pm 23.0 18.4 20.1 84 1.9 WNW 44 69 24 37 1010.9 1008.5 0.0
19/04:19pm 23.2 19.2 19.4 79 2.5 WNW 39 69 21 37 1010.6 1008.2 0.0
19/04:07pm 26.6 24.2 18.2 60 5.4 NE 28 54 15 29 1010.7 1008.3 0.0
19/04:00pm 30.8 29.4 20.4 54 7.0 E 28 37 15 20 1009.4 1007.1 0.0
19/03:30pm 31.6 29.1 20.2 50 7.7 E 33 46 18 25 1008.4 1006.0 0.0
19/03:00pm 33.5 31.3 20.3 46 8.9 E 32 41 17 22 1008.4 1006.0 0.0
19/02:30pm 34.3 32.3 20.7 45 9.3 E 32 43 17 23 1008.7 1006.3 0.0
19/02:00pm 35.3 35.4 20.4 41 10.2 E 20 28 11 15 1009.2 1006.9 0.0
19/01:30pm 34.7 34.0 20.3 43 9.8 E 24 35 13 19 1009.8 1007.5 0.0
19/01:00pm 34.6 35.6 20.2 43 9.8 ENE 15 26 8 14 1010.1 1007.8 0.0
19/12:30pm 34.9 34.7 20.5 43 9.8 E 22 35 12 19 1010.5 1008.1 0.0
19/12:00pm 32.9 32.5 19.4 45 9.0 ENE 20 28 11 15 1010.9 1008.5 0.0
19/11:30am 32.9 32.9 19.7 45 8.8 ENE 19 28 10 15 1011.4 1009.1 0.0
19/11:00am 32.1 32.3 19.4 47 8.5 ENE 17 39 9 21 1011.7 1009.4 0.0
19/10:30am 32.1 32.0 20.7 51 7.7 E 22 32 12 17 1012.0 1009.7 0.0
19/10:00am 31.1 30.3 20.1 52 7.4 E 24 35 13 19 1012.1 1009.8 0.0
19/09:30am 30.2 29.1 20.2 55 6.7 E 26 37 14 20 1012.2 1009.9 0.0
19/09:00am 30.2 28.8 20.4 55 6.6 E 28 37 15 20 1012.2 1009.9 0.0
19/08:30am 29.3 28.3 20.5 59 5.9 E 26 33 14 18 1012.1 1009.8 0.0
19/08:00am 28.8 27.6 20.8 62 5.4 E 28 33 15 18 1012.1 1009.8 0.0
19/07:30am 28.4 26.9 20.2 61 5.5 E 28 33 15 18 1012.0 1009.7 0.0
19/07:00am 28.0 27.1 19.8 61 5.4 E 24 30 13 16 1011.8 1009.5 0.0
19/06:30am 27.3 26.8 19.1 61 5.4 E 20 28 11 15 1011.8 1009.5 0.0
19/06:00am 26.7 26.1 16.6 54 6.4 E 15 20 8 11 1011.4 1009.1 0.0
19/05:30am 23.4 22.8 15.7 62 4.7 ESE 13 28 7 15 1011.0 1008.6 0.0
19/05:00am 22.1 23.8 15.2 65 4.2 CALM 0 0 0 0 1010.2 1007.9 0.0
19/04:30am 23.1 24.3 14.9 60 5.0 NW 2 7 1 4 1009.9 1007.6 0.0
19/04:00am 24.4 26.1 15.3 57 5.6 CALM 0 6 0 3 1009.8 1007.5 0.0
19/03:30am 24.7 25.3 15.3 56 5.8 NE 6 9 3 5 1009.4 1007.1 0.0
19/03:00am 25.1 25.8 15.7 56 5.8 NNW 6 9 3 5 1009.4 1007.1 0.0
19/02:30am 23.7 24.4 15.5 60 5.0 SSE 6 7 3 4 1009.6 1007.3 0.0
19/02:00am 24.4 25.2 15.9 59 5.3 NE 6 7 3 4 1009.8 1007.5 0.0
19/01:30am 24.5 24.7 15.7 58 5.4 SE 9 11 5 6 1010.0 1007.7 0.0
19/01:00am 24.6 24.7 15.5 57 5.6 E 9 11 5 6 1010.4 1008.0 0.0
19/12:30am 26.0 26.7 16.0 54 6.2 SSE 7 11 4 6 1010.9 1008.5 0.0
19/12:00am 24.7 24.7 15.1 55 5.9 ENE 9 11 5 6 1010.8 1008.4 0.0
 
Date/Time
EST
Temp
°C
App
Temp
°C
Dew
Point
°C
Rel
Hum
%
Delta-T
°C
Wind Press
QNH
hPa
Press
MSL
hPa
Rain since
9am
mm
Dir  Spd
km/h
Gust
km/h
Spd
kts
Gust
kts
18/11:30pm 25.4 25.5 15.4 54 6.2 ENE 9 13 5 7 1011.0 1008.6 0.0
18/11:00pm 26.0 26.2 15.7 53 6.4 NNE 9 13 5 7 1011.2 1008.8 0.0
18/10:30pm 27.3 27.5 15.7 49 7.2 N 9 13 5 7 1011.5 1009.2 0.0
18/10:00pm 29.9 30.2 14.4 38 9.6 N 6 11 3 6 1011.6 1009.3 0.0
18/09:30pm 32.3 32.4 14.4 33 11.1 W 7 15 4 8 1011.6 1009.3 0.0
18/09:00pm 32.4 32.7 15.0 35 10.9 SSE 7 11 4 6 1011.4 1009.1 0.0
18/08:30pm 32.0 32.0 14.2 34 11.0 W 7 9 4 5 1011.2 1008.8 0.0
18/08:00pm 32.5 31.9 14.6 34 11.2 W 11 13 6 7 1010.8 1008.4 0.0
18/07:30pm 33.3 32.1 13.9 31 12.0 WSW 13 15 7 8 1010.5 1008.1 0.0
18/07:00pm 34.2 32.5 13.6 29 12.7 WNW 15 17 8 9 1010.2 1007.9 0.0
18/06:30pm 35.4 33.9 13.0 26 13.8 WNW 13 15 7 8 1009.9 1007.6 0.0
18/06:00pm 35.8 33.6 13.3 26 13.9 W 17 24 9 13 1009.8 1007.5 0.0
18/05:30pm 36.9 34.0 13.0 24 14.8 WNW 20 28 11 15 1009.6 1007.3 0.0
18/05:00pm 36.4 34.0 12.6 24 14.6 W 17 22 9 12 1009.6 1007.3 0.0
18/04:30pm 36.5 33.5 12.7 24 14.6 WSW 20 30 11 16 1009.7 1007.4 0.0
18/04:00pm 35.8 33.2 12.1 24 14.4 WNW 17 28 9 15 1010.0 1007.7 0.0
18/03:30pm 37.0 33.8 11.8 22 15.3 WNW 20 30 11 16 1010.2 1007.9 0.0
18/03:00pm 36.7 33.6 11.5 22 15.3 W 19 33 10 18 1010.8 1008.4 0.0
18/02:30pm 36.8 34.3 14.1 25 14.3 WNW 20 32 11 17 1011.4 1009.1 0.0
18/02:00pm 35.4 33.9 14.1 28 13.3 WSW 15 24 8 13 1011.9 1009.6 0.0
18/01:30pm 35.4 33.5 15.2 30 12.8 WNW 19 33 10 18 1012.5 1010.2 0.0
18/01:00pm 34.3 32.6 15.7 32 11.9 WNW 19 28 10 15 1013.2 1010.8 0.0
18/12:30pm 33.5 32.0 16.4 36 11.0 W 19 28 10 15 1013.7 1011.4 0.0
18/12:00pm 32.8 31.8 16.6 38 10.4 W 17 30 9 16 1014.2 1011.9 0.0
18/11:30am 33.2 31.7 17.8 40 10.1 W 22 32 12 17 1014.7 1012.4 0.0
18/11:00am 32.3 31.2 17.7 41 9.5 WNW 20 32 11 17 1015.0 1012.7 0.0
18/10:30am 30.9 29.1 16.9 43 9.0 WNW 22 33 12 18 1015.6 1013.2 0.0
18/10:00am 30.2 27.5 16.6 44 8.7 W 26 33 14 18 1016.0 1013.7 0.0
18/09:30am 29.4 28.0 17.9 50 7.4 WNW 22 32 12 17 1016.5 1014.2 0.0
18/09:00am 27.0 26.1 17.8 57 5.9 WNW 19 28 10 15 1016.5 1014.2 0.0
18/08:30am 25.9 25.6 18.3 63 4.9 W 17 20 9 11 1016.7 1014.4 0.0
18/08:00am 25.2 25.2 18.2 65 4.5 W 15 20 8 11 1016.9 1014.6 0.0
18/07:30am 24.2 25.0 18.2 69 3.8 W 11 17 6 9 1016.9 1014.6 0.0
18/07:00am 22.8 24.3 17.7 73 3.2 WNW 6 9 3 5 1016.8 1014.5 0.0
18/06:30am 21.9 23.4 17.7 77 2.6 N 6 9 3 5 1016.5 1014.2 0.0
18/06:00am 21.2 22.8 18.2 83 1.9 ENE 7 9 4 5 1016.2 1013.9 0.0
18/05:30am 19.4 20.2 17.2 87 1.4 E 9 43 5 23 1016.0 1013.7 0.0
18/05:00am 19.2 19.8 16.8 86 1.5 ESE 9 11 5 6 1015.7 1013.3 0.0
18/04:30am 19.6 20.4 17.4 87 1.4 ESE 9 11 5 6 1015.1 1012.8 0.0
18/04:00am 20.2 21.4 17.4 84 1.7 E 7 9 4 5 1014.8 1012.5 0.0
18/03:30am 20.8 21.7 17.6 82 2.0 E 9 13 5 7 1014.6 1012.3 0.0
18/03:00am 21.4 22.1 18.0 81 2.1 ENE 11 15 6 8 1014.7 1012.4 0.0
18/02:30am 21.5 22.4 18.3 82 2.0 ENE 11 15 6 8 1014.6 1012.3 0.0
18/02:00am 21.7 22.6 18.5 82 2.0 NE 11 13 6 7 1014.8 1012.5 0.0
18/01:30am 22.2 23.2 18.6 80 2.3 NNE 11 13 6 7 1015.1 1012.8 0.0
18/01:00am 23.1 23.4 18.8 77 2.8 NE 15 19 8 10 1015.3 1013.0 0.0
18/12:30am 23.6 23.3 19.1 76 2.9 NE 19 22 10 12 1015.3 1013.0 0.0
18/12:00am 23.6 24.0 19.1 76 2.9 NE 15 20 8 11 1015.9 1013.6 0.0
 
Date/Time
EST
Temp
°C
App
Temp
°C
Dew
Point
°C
Rel
Hum
%
Delta-T
°C
Wind Press
QNH
hPa
Press
MSL
hPa
Rain since
9am
mm
Dir  Spd
km/h
Gust
km/h
Spd
kts
Gust
kts
17/11:30pm 23.9 24.4 19.2 75 3.0 NE 15 19 8 10 1016.1 1013.8 0.0
17/11:00pm 24.2 24.4 19.3 74 3.2 NE 17 19 9 10 1016.3 1014.0 0.0
17/10:30pm 24.6 24.3 19.2 72 3.5 NE 19 24 10 13 1016.5 1014.2 0.0
17/10:00pm 25.1 25.2 19.2 70 3.8 NE 17 22 9 12 1016.6 1014.3 0.0
17/09:30pm 25.8 25.5 19.2 67 4.3 NE 19 28 10 15 1016.7 1014.4 0.0
17/09:00pm 26.5 25.5 18.9 63 4.9 NE 22 28 12 15 1016.6 1014.3 0.0
17/08:30pm 27.3 26.8 18.6 59 5.7 NE 19 26 10 14 1016.4 1014.1 0.0
17/08:00pm 28.2 27.5 17.4 52 6.9 NE 17 20 9 11 1016.3 1014.0 0.0
17/07:30pm 28.9 28.1 17.1 49 7.5 NE 17 20 9 11 1016.1 1013.8 0.0
17/07:00pm 29.4 28.4 16.6 46 8.1 NE 17 24 9 13 1015.8 1013.5 0.0
17/06:30pm 30.7 28.9 15.9 40 9.3 ENE 20 28 11 15 1015.6 1013.2 0.0
17/06:00pm 31.8 29.7 15.3 37 10.4 ENE 20 28 11 15 1015.1 1012.8 0.0
17/05:30pm 32.4 30.7 15.8 36 10.5 ENE 19 26 10 14 1014.9 1012.6 0.0
17/05:00pm 33.1 30.9 16.0 35 10.9 ENE 22 32 12 17 1014.7 1012.4 0.0
17/04:30pm 33.2 31.1 15.2 33 11.3 ENE 20 28 11 15 1014.7 1012.4 0.0
17/04:00pm 33.4 32.3 15.4 34 11.4 ENE 15 24 8 13 1014.8 1012.5 0.0

Other Formats:

Comma delimited format used in spreadsheet applications
http://www.bom.gov.au/fwo/IDQ60801/IDQ60801.94552.axf

JavaScript Object Notation format (JSON) in row-major order
http://www.bom.gov.au/fwo/IDQ60801/IDQ60801.94552.json